sensor_id;sensor_type;location;lat;lon;timestamp;P1;durP1;ratioP1;P2;durP2;ratioP2
52512;SDS011;38422;53.172;6.974;2023-02-04T00:01:55;25.83;;;4.35;;
52512;SDS011;38422;53.172;6.974;2023-02-04T00:04:21;25.50;;;3.80;;
52512;SDS011;38422;53.172;6.974;2023-02-04T00:06:47;33.72;;;4.47;;
52512;SDS011;38422;53.172;6.974;2023-02-04T00:09:12;23.40;;;3.63;;
52512;SDS011;38422;53.172;6.974;2023-02-04T00:14:07;36.45;;;4.55;;
52512;SDS011;38422;53.172;6.974;2023-02-04T00:16:32;22.52;;;4.40;;
52512;SDS011;38422;53.172;6.974;2023-02-04T00:18:58;24.20;;;4.38;;
52512;SDS011;38422;53.172;6.974;2023-02-04T00:21:24;32.15;;;4.97;;
52512;SDS011;38422;53.172;6.974;2023-02-04T00:23:49;29.20;;;5.00;;
52512;SDS011;38422;53.172;6.974;2023-02-04T00:26:15;23.02;;;3.88;;
52512;SDS011;38422;53.172;6.974;2023-02-04T00:28:41;27.70;;;4.03;;
52512;SDS011;38422;53.172;6.974;2023-02-04T00:31:07;26.15;;;3.92;;
52512;SDS011;38422;53.172;6.974;2023-02-04T00:33:33;25.58;;;3.72;;
52512;SDS011;38422;53.172;6.974;2023-02-04T00:35:58;36.17;;;4.63;;
52512;SDS011;38422;53.172;6.974;2023-02-04T00:38:24;28.33;;;4.47;;
52512;SDS011;38422;53.172;6.974;2023-02-04T00:40:50;23.60;;;3.85;;
52512;SDS011;38422;53.172;6.974;2023-02-04T00:43:15;31.25;;;5.03;;
52512;SDS011;38422;53.172;6.974;2023-02-04T00:45:41;22.20;;;4.20;;
52512;SDS011;38422;53.172;6.974;2023-02-04T00:48:07;26.85;;;4.40;;
52512;SDS011;38422;53.172;6.974;2023-02-04T00:50:32;21.45;;;3.85;;
52512;SDS011;38422;53.172;6.974;2023-02-04T00:53:03;29.98;;;4.00;;
52512;SDS011;38422;53.172;6.974;2023-02-04T00:55:29;26.65;;;4.97;;
52512;SDS011;38422;53.172;6.974;2023-02-04T00:57:55;30.70;;;4.20;;
52512;SDS011;38422;53.172;6.974;2023-02-04T01:00:21;24.40;;;4.18;;
52512;SDS011;38422;53.172;6.974;2023-02-04T01:02:47;26.77;;;4.25;;
52512;SDS011;38422;53.172;6.974;2023-02-04T01:05:13;25.05;;;4.80;;
52512;SDS011;38422;53.172;6.974;2023-02-04T01:07:38;32.88;;;4.75;;
52512;SDS011;38422;53.172;6.974;2023-02-04T01:10:04;23.95;;;4.30;;
52512;SDS011;38422;53.172;6.974;2023-02-04T01:12:30;31.98;;;4.50;;
52512;SDS011;38422;53.172;6.974;2023-02-04T01:14:56;27.95;;;4.35;;
52512;SDS011;38422;53.172;6.974;2023-02-04T01:17:22;27.80;;;4.45;;
52512;SDS011;38422;53.172;6.974;2023-02-04T01:19:47;27.33;;;4.28;;
52512;SDS011;38422;53.172;6.974;2023-02-04T01:22:13;27.50;;;4.00;;
52512;SDS011;38422;53.172;6.974;2023-02-04T01:24:39;30.45;;;4.65;;
52512;SDS011;38422;53.172;6.974;2023-02-04T01:27:04;25.60;;;4.22;;
52512;SDS011;38422;53.172;6.974;2023-02-04T01:29:30;22.88;;;3.40;;
52512;SDS011;38422;53.172;6.974;2023-02-04T01:31:56;24.33;;;4.03;;
52512;SDS011;38422;53.172;6.974;2023-02-04T01:34:21;22.63;;;3.30;;
52512;SDS011;38422;53.172;6.974;2023-02-04T01:36:47;24.10;;;3.80;;
52512;SDS011;38422;53.172;6.974;2023-02-04T01:39:13;28.05;;;3.97;;
52512;SDS011;38422;53.172;6.974;2023-02-04T01:41:39;21.10;;;3.95;;
52512;SDS011;38422;53.172;6.974;2023-02-04T01:44:05;23.40;;;4.25;;
52512;SDS011;38422;53.172;6.974;2023-02-04T01:46:31;24.83;;;3.83;;
52512;SDS011;38422;53.172;6.974;2023-02-04T01:48:59;24.20;;;3.88;;
52512;SDS011;38422;53.172;6.974;2023-02-04T01:51:26;29.33;;;3.95;;
52512;SDS011;38422;53.172;6.974;2023-02-04T01:53:54;25.33;;;3.70;;
52512;SDS011;38422;53.172;6.974;2023-02-04T01:56:24;24.95;;;3.97;;
52512;SDS011;38422;53.172;6.974;2023-02-04T01:58:51;29.13;;;4.20;;
52512;SDS011;38422;53.172;6.974;2023-02-04T02:04:04;22.73;;;3.92;;
52512;SDS011;38422;53.172;6.974;2023-02-04T02:06:30;24.48;;;3.38;;
52512;SDS011;38422;53.172;6.974;2023-02-04T02:08:56;25.00;;;3.58;;
52512;SDS011;38422;53.172;6.974;2023-02-04T02:11:23;28.73;;;4.32;;
52512;SDS011;38422;53.172;6.974;2023-02-04T02:13:49;28.05;;;3.50;;
52512;SDS011;38422;53.172;6.974;2023-02-04T02:16:15;27.70;;;3.78;;
52512;SDS011;38422;53.172;6.974;2023-02-04T02:18:41;21.20;;;3.50;;
52512;SDS011;38422;53.172;6.974;2023-02-04T02:21:08;23.27;;;3.33;;
52512;SDS011;38422;53.172;6.974;2023-02-04T02:23:54;25.73;;;3.95;;
52512;SDS011;38422;53.172;6.974;2023-02-04T02:26:21;23.90;;;4.10;;
52512;SDS011;38422;53.172;6.974;2023-02-04T02:28:48;28.65;;;3.78;;
52512;SDS011;38422;53.172;6.974;2023-02-04T02:31:15;29.45;;;3.80;;
52512;SDS011;38422;53.172;6.974;2023-02-04T02:33:43;21.20;;;3.63;;
52512;SDS011;38422;53.172;6.974;2023-02-04T02:36:09;24.33;;;3.95;;
52512;SDS011;38422;53.172;6.974;2023-02-04T02:38:35;21.77;;;3.72;;
52512;SDS011;38422;53.172;6.974;2023-02-04T02:41:01;28.80;;;3.47;;
52512;SDS011;38422;53.172;6.974;2023-02-04T02:43:28;29.70;;;4.22;;
52512;SDS011;38422;53.172;6.974;2023-02-04T02:45:58;23.27;;;3.47;;
52512;SDS011;38422;53.172;6.974;2023-02-04T02:48:25;20.95;;;3.50;;
52512;SDS011;38422;53.172;6.974;2023-02-04T02:50:51;25.90;;;4.03;;
52512;SDS011;38422;53.172;6.974;2023-02-04T02:53:18;24.02;;;3.88;;
52512;SDS011;38422;53.172;6.974;2023-02-04T02:55:44;21.92;;;3.42;;
52512;SDS011;38422;53.172;6.974;2023-02-04T02:58:22;25.10;;;3.80;;
52512;SDS011;38422;53.172;6.974;2023-02-04T03:00:52;20.90;;;2.95;;
52512;SDS011;38422;53.172;6.974;2023-02-04T03:03:19;24.33;;;3.57;;
52512;SDS011;38422;53.172;6.974;2023-02-04T03:05:51;22.27;;;3.70;;
52512;SDS011;38422;53.172;6.974;2023-02-04T03:08:26;20.30;;;3.17;;
52512;SDS011;38422;53.172;6.974;2023-02-04T03:10:52;21.75;;;3.50;;
52512;SDS011;38422;53.172;6.974;2023-02-04T03:13:18;20.77;;;3.60;;
52512;SDS011;38422;53.172;6.974;2023-02-04T03:15:45;24.25;;;3.33;;
52512;SDS011;38422;53.172;6.974;2023-02-04T03:18:12;18.50;;;2.83;;
52512;SDS011;38422;53.172;6.974;2023-02-04T03:20:40;25.73;;;3.72;;
52512;SDS011;38422;53.172;6.974;2023-02-04T03:23:06;18.70;;;3.40;;
52512;SDS011;38422;53.172;6.974;2023-02-04T03:25:32;22.17;;;3.08;;
52512;SDS011;38422;53.172;6.974;2023-02-04T03:27:58;19.77;;;3.10;;
52512;SDS011;38422;53.172;6.974;2023-02-04T03:30:24;19.05;;;2.75;;
52512;SDS011;38422;53.172;6.974;2023-02-04T03:32:50;18.05;;;2.55;;
52512;SDS011;38422;53.172;6.974;2023-02-04T03:35:17;21.05;;;4.07;;
52512;SDS011;38422;53.172;6.974;2023-02-04T03:37:43;13.85;;;2.63;;
52512;SDS011;38422;53.172;6.974;2023-02-04T03:40:10;17.42;;;2.40;;
52512;SDS011;38422;53.172;6.974;2023-02-04T03:42:36;21.57;;;2.90;;
52512;SDS011;38422;53.172;6.974;2023-02-04T03:45:02;17.52;;;2.55;;
52512;SDS011;38422;53.172;6.974;2023-02-04T03:47:28;17.85;;;2.80;;
52512;SDS011;38422;53.172;6.974;2023-02-04T03:49:54;19.70;;;3.03;;
52512;SDS011;38422;53.172;6.974;2023-02-04T03:52:19;21.55;;;2.95;;
52512;SDS011;38422;53.172;6.974;2023-02-04T03:54:45;18.60;;;3.03;;
52512;SDS011;38422;53.172;6.974;2023-02-04T03:57:11;19.95;;;2.90;;
52512;SDS011;38422;53.172;6.974;2023-02-04T03:59:37;16.90;;;3.22;;
52512;SDS011;38422;53.172;6.974;2023-02-04T04:02:03;16.25;;;2.65;;
52512;SDS011;38422;53.172;6.974;2023-02-04T04:04:29;20.55;;;3.00;;
52512;SDS011;38422;53.172;6.974;2023-02-04T04:06:54;18.90;;;2.72;;
52512;SDS011;38422;53.172;6.974;2023-02-04T04:09:20;18.95;;;3.15;;
52512;SDS011;38422;53.172;6.974;2023-02-04T04:11:46;18.42;;;2.80;;
52512;SDS011;38422;53.172;6.974;2023-02-04T04:14:12;21.08;;;2.95;;
52512;SDS011;38422;53.172;6.974;2023-02-04T04:16:37;15.32;;;2.75;;
52512;SDS011;38422;53.172;6.974;2023-02-04T04:19:03;16.60;;;2.78;;
52512;SDS011;38422;53.172;6.974;2023-02-04T04:21:29;18.52;;;2.97;;
52512;SDS011;38422;53.172;6.974;2023-02-04T04:23:55;16.88;;;2.38;;
52512;SDS011;38422;53.172;6.974;2023-02-04T04:26:20;14.45;;;2.55;;
52512;SDS011;38422;53.172;6.974;2023-02-04T04:28:46;14.50;;;2.10;;
52512;SDS011;38422;53.172;6.974;2023-02-04T04:31:12;18.42;;;2.42;;
52512;SDS011;38422;53.172;6.974;2023-02-04T04:33:37;16.98;;;2.78;;
52512;SDS011;38422;53.172;6.974;2023-02-04T04:36:03;15.88;;;2.28;;
52512;SDS011;38422;53.172;6.974;2023-02-04T04:38:30;13.63;;;2.72;;
52512;SDS011;38422;53.172;6.974;2023-02-04T04:40:55;18.00;;;2.88;;
52512;SDS011;38422;53.172;6.974;2023-02-04T04:43:21;18.70;;;2.38;;
52512;SDS011;38422;53.172;6.974;2023-02-04T04:45:47;13.75;;;2.30;;
52512;SDS011;38422;53.172;6.974;2023-02-04T04:48:12;15.38;;;2.33;;
52512;SDS011;38422;53.172;6.974;2023-02-04T04:50:38;16.65;;;2.40;;
52512;SDS011;38422;53.172;6.974;2023-02-04T04:53:04;15.73;;;2.17;;
52512;SDS011;38422;53.172;6.974;2023-02-04T04:55:35;13.38;;;2.20;;
52512;SDS011;38422;53.172;6.974;2023-02-04T04:58:02;14.95;;;2.38;;
52512;SDS011;38422;53.172;6.974;2023-02-04T05:00:28;14.43;;;2.17;;
52512;SDS011;38422;53.172;6.974;2023-02-04T05:02:54;12.68;;;2.10;;
52512;SDS011;38422;53.172;6.974;2023-02-04T05:05:20;17.33;;;2.20;;
52512;SDS011;38422;53.172;6.974;2023-02-04T05:07:45;12.93;;;1.92;;
52512;SDS011;38422;53.172;6.974;2023-02-04T05:10:11;14.65;;;2.35;;
52512;SDS011;38422;53.172;6.974;2023-02-04T05:12:37;10.43;;;1.80;;
52512;SDS011;38422;53.172;6.974;2023-02-04T05:15:03;12.13;;;1.77;;
52512;SDS011;38422;53.172;6.974;2023-02-04T05:17:29;8.82;;;1.60;;
52512;SDS011;38422;53.172;6.974;2023-02-04T05:19:54;14.27;;;2.28;;
52512;SDS011;38422;53.172;6.974;2023-02-04T05:22:20;9.52;;;2.10;;
52512;SDS011;38422;53.172;6.974;2023-02-04T05:24:46;13.77;;;2.15;;
52512;SDS011;38422;53.172;6.974;2023-02-04T05:27:12;11.63;;;1.95;;
52512;SDS011;38422;53.172;6.974;2023-02-04T05:29:37;15.85;;;2.20;;
52512;SDS011;38422;53.172;6.974;2023-02-04T05:32:03;12.25;;;1.80;;
52512;SDS011;38422;53.172;6.974;2023-02-04T05:34:29;11.68;;;1.90;;
52512;SDS011;38422;53.172;6.974;2023-02-04T05:36:54;10.30;;;1.73;;
52512;SDS011;38422;53.172;6.974;2023-02-04T05:39:20;12.02;;;1.88;;
52512;SDS011;38422;53.172;6.974;2023-02-04T05:41:46;12.00;;;1.52;;
52512;SDS011;38422;53.172;6.974;2023-02-04T05:44:12;16.40;;;2.05;;
52512;SDS011;38422;53.172;6.974;2023-02-04T05:46:38;13.95;;;2.10;;
52512;SDS011;38422;53.172;6.974;2023-02-04T05:49:04;11.60;;;1.67;;
52512;SDS011;38422;53.172;6.974;2023-02-04T05:51:30;14.25;;;2.00;;
52512;SDS011;38422;53.172;6.974;2023-02-04T05:53:55;10.80;;;1.60;;
52512;SDS011;38422;53.172;6.974;2023-02-04T05:56:21;11.98;;;1.50;;
52512;SDS011;38422;53.172;6.974;2023-02-04T05:58:47;8.30;;;1.23;;
52512;SDS011;38422;53.172;6.974;2023-02-04T06:01:12;7.15;;;1.30;;
52512;SDS011;38422;53.172;6.974;2023-02-04T06:03:38;9.35;;;1.58;;
52512;SDS011;38422;53.172;6.974;2023-02-04T06:06:04;6.47;;;1.30;;
52512;SDS011;38422;53.172;6.974;2023-02-04T06:08:30;9.82;;;1.88;;
52512;SDS011;38422;53.172;6.974;2023-02-04T06:10:55;11.98;;;1.70;;
52512;SDS011;38422;53.172;6.974;2023-02-04T06:13:21;10.48;;;1.67;;
52512;SDS011;38422;53.172;6.974;2023-02-04T06:15:47;6.28;;;1.38;;
52512;SDS011;38422;53.172;6.974;2023-02-04T06:18:12;9.70;;;1.58;;
52512;SDS011;38422;53.172;6.974;2023-02-04T06:20:38;11.95;;;1.45;;
52512;SDS011;38422;53.172;6.974;2023-02-04T06:23:04;9.10;;;1.10;;
52512;SDS011;38422;53.172;6.974;2023-02-04T06:25:29;11.10;;;1.58;;
52512;SDS011;38422;53.172;6.974;2023-02-04T06:27:55;9.45;;;1.25;;
52512;SDS011;38422;53.172;6.974;2023-02-04T06:30:21;9.45;;;1.20;;
52512;SDS011;38422;53.172;6.974;2023-02-04T06:32:46;15.75;;;1.77;;
52512;SDS011;38422;53.172;6.974;2023-02-04T06:35:12;11.02;;;1.83;;
52512;SDS011;38422;53.172;6.974;2023-02-04T06:37:40;9.68;;;1.58;;
52512;SDS011;38422;53.172;6.974;2023-02-04T06:40:06;11.05;;;1.48;;
52512;SDS011;38422;53.172;6.974;2023-02-04T06:42:33;8.23;;;1.20;;
52512;SDS011;38422;53.172;6.974;2023-02-04T06:44:58;14.27;;;1.77;;
52512;SDS011;38422;53.172;6.974;2023-02-04T06:47:24;8.07;;;1.55;;
52512;SDS011;38422;53.172;6.974;2023-02-04T06:49:50;10.02;;;1.48;;
52512;SDS011;38422;53.172;6.974;2023-02-04T06:52:18;7.93;;;1.48;;
52512;SDS011;38422;53.172;6.974;2023-02-04T06:54:45;11.93;;;1.60;;
52512;SDS011;38422;53.172;6.974;2023-02-04T06:57:11;8.63;;;1.40;;
52512;SDS011;38422;53.172;6.974;2023-02-04T06:59:37;8.15;;;1.08;;
52512;SDS011;38422;53.172;6.974;2023-02-04T07:04:31;8.10;;;1.40;;
52512;SDS011;38422;53.172;6.974;2023-02-04T07:06:57;9.10;;;1.33;;
52512;SDS011;38422;53.172;6.974;2023-02-04T07:09:22;8.50;;;1.35;;
52512;SDS011;38422;53.172;6.974;2023-02-04T07:11:49;8.00;;;1.30;;
52512;SDS011;38422;53.172;6.974;2023-02-04T07:14:15;7.50;;;1.15;;
52512;SDS011;38422;53.172;6.974;2023-02-04T07:16:43;6.68;;;1.63;;
52512;SDS011;38422;53.172;6.974;2023-02-04T07:19:09;9.82;;;1.40;;
52512;SDS011;38422;53.172;6.974;2023-02-04T07:21:34;8.43;;;1.40;;
52512;SDS011;38422;53.172;6.974;2023-02-04T07:24:00;7.35;;;1.70;;
52512;SDS011;38422;53.172;6.974;2023-02-04T07:26:26;9.00;;;1.70;;
52512;SDS011;38422;53.172;6.974;2023-02-04T07:28:51;6.22;;;1.10;;
52512;SDS011;38422;53.172;6.974;2023-02-04T07:31:17;8.32;;;1.52;;
52512;SDS011;38422;53.172;6.974;2023-02-04T07:33:43;7.88;;;1.40;;
52512;SDS011;38422;53.172;6.974;2023-02-04T07:36:08;5.53;;;1.10;;
52512;SDS011;38422;53.172;6.974;2023-02-04T07:38:34;8.18;;;1.42;;
52512;SDS011;38422;53.172;6.974;2023-02-04T07:41:00;8.40;;;1.38;;
52512;SDS011;38422;53.172;6.974;2023-02-04T07:43:25;7.40;;;1.42;;
52512;SDS011;38422;53.172;6.974;2023-02-04T07:45:51;5.00;;;1.33;;
52512;SDS011;38422;53.172;6.974;2023-02-04T07:48:17;9.10;;;1.50;;
52512;SDS011;38422;53.172;6.974;2023-02-04T07:50:43;7.65;;;1.20;;
52512;SDS011;38422;53.172;6.974;2023-02-04T07:53:09;7.47;;;1.45;;
52512;SDS011;38422;53.172;6.974;2023-02-04T07:55:34;9.73;;;1.70;;
52512;SDS011;38422;53.172;6.974;2023-02-04T07:58:00;9.35;;;1.67;;
52512;SDS011;38422;53.172;6.974;2023-02-04T08:00:26;7.95;;;1.30;;
52512;SDS011;38422;53.172;6.974;2023-02-04T08:02:51;9.35;;;1.67;;
52512;SDS011;38422;53.172;6.974;2023-02-04T08:05:17;8.88;;;1.48;;
52512;SDS011;38422;53.172;6.974;2023-02-04T08:07:43;7.10;;;1.48;;
52512;SDS011;38422;53.172;6.974;2023-02-04T08:10:09;8.02;;;1.50;;
52512;SDS011;38422;53.172;6.974;2023-02-04T08:12:35;9.07;;;1.67;;
52512;SDS011;38422;53.172;6.974;2023-02-04T08:15:01;4.97;;;1.08;;
52512;SDS011;38422;53.172;6.974;2023-02-04T08:17:27;6.05;;;1.27;;
52512;SDS011;38422;53.172;6.974;2023-02-04T08:19:53;7.22;;;1.48;;
52512;SDS011;38422;53.172;6.974;2023-02-04T08:22:19;6.65;;;1.40;;
52512;SDS011;38422;53.172;6.974;2023-02-04T08:24:44;7.32;;;1.38;;
52512;SDS011;38422;53.172;6.974;2023-02-04T08:27:10;8.65;;;1.33;;
52512;SDS011;38422;53.172;6.974;2023-02-04T08:29:36;5.03;;;1.30;;
52512;SDS011;38422;53.172;6.974;2023-02-04T08:32:02;7.40;;;1.38;;
52512;SDS011;38422;53.172;6.974;2023-02-04T08:34:28;8.98;;;1.55;;
52512;SDS011;38422;53.172;6.974;2023-02-04T08:36:54;4.93;;;1.30;;
52512;SDS011;38422;53.172;6.974;2023-02-04T08:39:21;4.82;;;1.35;;
52512;SDS011;38422;53.172;6.974;2023-02-04T08:41:47;10.40;;;1.38;;
52512;SDS011;38422;53.172;6.974;2023-02-04T08:44:16;6.43;;;1.40;;
52512;SDS011;38422;53.172;6.974;2023-02-04T08:46:41;5.78;;;1.20;;
52512;SDS011;38422;53.172;6.974;2023-02-04T08:49:07;6.63;;;1.40;;
52512;SDS011;38422;53.172;6.974;2023-02-04T08:51:33;5.07;;;1.45;;
52512;SDS011;38422;53.172;6.974;2023-02-04T08:53:59;6.43;;;1.67;;
52512;SDS011;38422;53.172;6.974;2023-02-04T08:56:24;6.60;;;1.60;;
52512;SDS011;38422;53.172;6.974;2023-02-04T08:58:50;5.47;;;1.40;;
52512;SDS011;38422;53.172;6.974;2023-02-04T09:01:17;5.15;;;1.42;;
52512;SDS011;38422;53.172;6.974;2023-02-04T09:03:43;8.82;;;1.75;;
52512;SDS011;38422;53.172;6.974;2023-02-04T09:06:09;5.68;;;1.40;;
52512;SDS011;38422;53.172;6.974;2023-02-04T09:08:35;5.50;;;1.50;;
52512;SDS011;38422;53.172;6.974;2023-02-04T09:11:01;8.20;;;1.80;;
52512;SDS011;38422;53.172;6.974;2023-02-04T09:13:28;6.05;;;1.35;;
52512;SDS011;38422;53.172;6.974;2023-02-04T09:15:54;6.45;;;1.65;;
52512;SDS011;38422;53.172;6.974;2023-02-04T09:18:20;6.53;;;1.92;;
52512;SDS011;38422;53.172;6.974;2023-02-04T09:20:47;5.70;;;1.67;;
52512;SDS011;38422;53.172;6.974;2023-02-04T09:23:13;7.85;;;1.65;;
52512;SDS011;38422;53.172;6.974;2023-02-04T09:25:40;8.93;;;1.80;;
52512;SDS011;38422;53.172;6.974;2023-02-04T09:28:07;5.45;;;1.88;;
52512;SDS011;38422;53.172;6.974;2023-02-04T09:30:35;12.25;;;1.55;;
52512;SDS011;38422;53.172;6.974;2023-02-04T09:33:02;5.95;;;1.90;;
52512;SDS011;38422;53.172;6.974;2023-02-04T09:35:27;6.55;;;1.65;;
52512;SDS011;38422;53.172;6.974;2023-02-04T09:37:53;7.53;;;1.83;;
52512;SDS011;38422;53.172;6.974;2023-02-04T09:40:19;6.40;;;1.48;;
52512;SDS011;38422;53.172;6.974;2023-02-04T09:42:48;5.97;;;1.73;;
52512;SDS011;38422;53.172;6.974;2023-02-04T09:45:19;6.90;;;1.90;;
52512;SDS011;38422;53.172;6.974;2023-02-04T09:47:52;5.50;;;1.67;;
52512;SDS011;38422;53.172;6.974;2023-02-04T09:50:19;6.90;;;1.70;;
52512;SDS011;38422;53.172;6.974;2023-02-04T09:52:48;5.90;;;1.75;;
52512;SDS011;38422;53.172;6.974;2023-02-04T09:55:15;6.70;;;1.50;;
52512;SDS011;38422;53.172;6.974;2023-02-04T09:57:43;5.50;;;1.67;;
52512;SDS011;38422;53.172;6.974;2023-02-04T10:00:13;5.65;;;1.17;;
52512;SDS011;38422;53.172;6.974;2023-02-04T10:02:40;5.00;;;1.73;;
52512;SDS011;38422;53.172;6.974;2023-02-04T10:05:08;5.70;;;1.70;;
52512;SDS011;38422;53.172;6.974;2023-02-04T10:07:39;3.95;;;1.58;;
52512;SDS011;38422;53.172;6.974;2023-02-04T10:10:04;4.15;;;1.50;;
52512;SDS011;38422;53.172;6.974;2023-02-04T10:12:30;6.93;;;1.70;;
52512;SDS011;38422;53.172;6.974;2023-02-04T10:14:56;3.55;;;1.20;;
52512;SDS011;38422;53.172;6.974;2023-02-04T10:17:24;3.15;;;1.20;;
52512;SDS011;38422;53.172;6.974;2023-02-04T10:19:50;5.70;;;1.48;;
52512;SDS011;38422;53.172;6.974;2023-02-04T10:22:18;4.30;;;1.30;;
52512;SDS011;38422;53.172;6.974;2023-02-04T10:24:45;4.68;;;1.50;;
52512;SDS011;38422;53.172;6.974;2023-02-04T10:27:12;3.95;;;1.50;;
52512;SDS011;38422;53.172;6.974;2023-02-04T10:29:40;4.10;;;1.23;;
52512;SDS011;38422;53.172;6.974;2023-02-04T10:32:26;6.45;;;1.52;;
52512;SDS011;38422;53.172;6.974;2023-02-04T10:35:00;4.70;;;1.40;;
52512;SDS011;38422;53.172;6.974;2023-02-04T10:37:27;4.70;;;1.40;;
52512;SDS011;38422;53.172;6.974;2023-02-04T10:39:54;4.03;;;1.30;;
52512;SDS011;38422;53.172;6.974;2023-02-04T10:42:23;3.85;;;1.50;;
52512;SDS011;38422;53.172;6.974;2023-02-04T10:44:50;3.97;;;1.60;;
52512;SDS011;38422;53.172;6.974;2023-02-04T10:47:18;3.55;;;1.30;;
52512;SDS011;38422;53.172;6.974;2023-02-04T10:49:52;5.50;;;1.40;;
52512;SDS011;38422;53.172;6.974;2023-02-04T10:52:29;3.05;;;1.20;;
52512;SDS011;38422;53.172;6.974;2023-02-04T10:55:17;3.72;;;1.20;;
52512;SDS011;38422;53.172;6.974;2023-02-04T10:57:46;5.03;;;1.33;;
52512;SDS011;38422;53.172;6.974;2023-02-04T11:00:21;5.72;;;1.38;;
52512;SDS011;38422;53.172;6.974;2023-02-04T11:03:03;4.18;;;1.40;;
52512;SDS011;38422;53.172;6.974;2023-02-04T11:05:35;5.70;;;1.50;;
52512;SDS011;38422;53.172;6.974;2023-02-04T11:08:01;4.28;;;1.40;;
52512;SDS011;38422;53.172;6.974;2023-02-04T11:10:42;5.95;;;1.40;;
52512;SDS011;38422;53.172;6.974;2023-02-04T11:13:18;4.82;;;1.40;;
52512;SDS011;38422;53.172;6.974;2023-02-04T11:20:45;6.30;;;1.83;;
52512;SDS011;38422;53.172;6.974;2023-02-04T11:23:31;5.63;;;1.45;;
52512;SDS011;38422;53.172;6.974;2023-02-04T11:26:03;4.57;;;1.40;;
52512;SDS011;38422;53.172;6.974;2023-02-04T11:28:54;3.60;;;1.33;;
52512;SDS011;38422;53.172;6.974;2023-02-04T11:39:46;4.20;;;1.40;;
52512;SDS011;38422;53.172;6.974;2023-02-04T11:42:20;4.80;;;1.65;;
52512;SDS011;38422;53.172;6.974;2023-02-04T11:45:01;3.03;;;1.20;;
52512;SDS011;38422;53.172;6.974;2023-02-04T11:47:39;6.10;;;1.42;;
52512;SDS011;38422;53.172;6.974;2023-02-04T11:50:25;3.20;;;1.30;;
52512;SDS011;38422;53.172;6.974;2023-02-04T11:52:54;4.47;;;1.60;;
52512;SDS011;38422;53.172;6.974;2023-02-04T11:57:52;2.55;;;1.20;;
52512;SDS011;38422;53.172;6.974;2023-02-04T12:00:27;4.25;;;1.40;;
52512;SDS011;38422;53.172;6.974;2023-02-04T12:02:56;2.83;;;1.40;;
52512;SDS011;38422;53.172;6.974;2023-02-04T12:05:39;4.72;;;1.25;;
52512;SDS011;38422;53.172;6.974;2023-02-04T12:08:23;3.13;;;1.45;;
52512;SDS011;38422;53.172;6.974;2023-02-04T12:11:04;4.03;;;1.30;;
52512;SDS011;38422;53.172;6.974;2023-02-04T12:13:44;3.05;;;1.10;;
52512;SDS011;38422;53.172;6.974;2023-02-04T12:16:15;4.15;;;1.50;;
52512;SDS011;38422;53.172;6.974;2023-02-04T12:18:40;3.90;;;1.65;;
52512;SDS011;38422;53.172;6.974;2023-02-04T12:21:06;2.97;;;1.40;;
52512;SDS011;38422;53.172;6.974;2023-02-04T12:23:32;4.78;;;1.42;;
52512;SDS011;38422;53.172;6.974;2023-02-04T12:25:57;4.47;;;1.40;;
52512;SDS011;38422;53.172;6.974;2023-02-04T12:28:24;4.38;;;1.50;;
52512;SDS011;38422;53.172;6.974;2023-02-04T12:30:51;5.65;;;1.45;;
52512;SDS011;38422;53.172;6.974;2023-02-04T12:33:17;3.50;;;1.40;;
52512;SDS011;38422;53.172;6.974;2023-02-04T12:35:43;2.45;;;1.20;;
52512;SDS011;38422;53.172;6.974;2023-02-04T12:38:09;5.03;;;1.50;;
52512;SDS011;38422;53.172;6.974;2023-02-04T12:40:35;4.53;;;1.60;;
52512;SDS011;38422;53.172;6.974;2023-02-04T12:43:02;2.97;;;1.30;;
52512;SDS011;38422;53.172;6.974;2023-02-04T12:45:28;3.50;;;1.35;;
52512;SDS011;38422;53.172;6.974;2023-02-04T12:47:53;4.20;;;1.30;;
52512;SDS011;38422;53.172;6.974;2023-02-04T12:50:19;3.55;;;1.40;;
52512;SDS011;38422;53.172;6.974;2023-02-04T12:52:48;2.92;;;1.30;;
52512;SDS011;38422;53.172;6.974;2023-02-04T12:55:15;6.35;;;2.33;;
52512;SDS011;38422;53.172;6.974;2023-02-04T12:57:41;3.13;;;1.90;;
52512;SDS011;38422;53.172;6.974;2023-02-04T13:00:06;4.43;;;1.58;;
52512;SDS011;38422;53.172;6.974;2023-02-04T13:02:33;3.97;;;1.57;;
52512;SDS011;38422;53.172;6.974;2023-02-04T13:04:59;4.05;;;1.63;;
52512;SDS011;38422;53.172;6.974;2023-02-04T13:07:24;3.05;;;1.50;;
52512;SDS011;38422;53.172;6.974;2023-02-04T13:09:50;3.80;;;1.70;;
52512;SDS011;38422;53.172;6.974;2023-02-04T13:12:16;4.70;;;1.52;;
52512;SDS011;38422;53.172;6.974;2023-02-04T13:14:42;3.92;;;1.52;;
52512;SDS011;38422;53.172;6.974;2023-02-04T13:17:08;3.90;;;1.40;;
52512;SDS011;38422;53.172;6.974;2023-02-04T13:19:35;3.87;;;1.60;;
52512;SDS011;38422;53.172;6.974;2023-02-04T13:22:01;4.38;;;1.48;;
52512;SDS011;38422;53.172;6.974;2023-02-04T13:24:27;4.45;;;1.45;;
52512;SDS011;38422;53.172;6.974;2023-02-04T13:26:53;4.25;;;1.42;;
52512;SDS011;38422;53.172;6.974;2023-02-04T13:29:19;4.05;;;1.73;;
52512;SDS011;38422;53.172;6.974;2023-02-04T13:31:46;3.53;;;1.40;;
52512;SDS011;38422;53.172;6.974;2023-02-04T13:34:12;3.45;;;1.60;;
52512;SDS011;38422;53.172;6.974;2023-02-04T13:36:37;3.60;;;1.63;;
52512;SDS011;38422;53.172;6.974;2023-02-04T13:39:04;2.67;;;1.40;;
52512;SDS011;38422;53.172;6.974;2023-02-04T13:41:29;2.45;;;1.40;;
52512;SDS011;38422;53.172;6.974;2023-02-04T13:43:55;4.00;;;1.45;;
52512;SDS011;38422;53.172;6.974;2023-02-04T13:46:22;3.95;;;1.60;;
52512;SDS011;38422;53.172;6.974;2023-02-04T13:48:49;3.03;;;1.55;;
52512;SDS011;38422;53.172;6.974;2023-02-04T13:51:15;2.63;;;1.30;;
52512;SDS011;38422;53.172;6.974;2023-02-04T13:53:41;3.05;;;1.40;;
52512;SDS011;38422;53.172;6.974;2023-02-04T13:56:07;4.13;;;1.52;;
52512;SDS011;38422;53.172;6.974;2023-02-04T13:58:33;3.38;;;1.50;;
52512;SDS011;38422;53.172;6.974;2023-02-04T14:00:59;3.03;;;1.60;;
52512;SDS011;38422;53.172;6.974;2023-02-04T14:03:25;4.00;;;1.65;;
52512;SDS011;38422;53.172;6.974;2023-02-04T14:05:52;2.63;;;1.25;;
52512;SDS011;38422;53.172;6.974;2023-02-04T14:08:18;3.10;;;1.30;;
52512;SDS011;38422;53.172;6.974;2023-02-04T14:10:45;4.63;;;1.38;;
52512;SDS011;38422;53.172;6.974;2023-02-04T14:13:11;2.33;;;1.27;;
52512;SDS011;38422;53.172;6.974;2023-02-04T14:15:36;3.20;;;1.50;;
52512;SDS011;38422;53.172;6.974;2023-02-04T14:18:03;3.25;;;1.30;;
52512;SDS011;38422;53.172;6.974;2023-02-04T14:20:29;3.33;;;1.40;;
52512;SDS011;38422;53.172;6.974;2023-02-04T14:22:55;4.15;;;1.63;;
52512;SDS011;38422;53.172;6.974;2023-02-04T14:25:21;5.72;;;1.42;;
52512;SDS011;38422;53.172;6.974;2023-02-04T14:27:47;3.53;;;1.23;;
52512;SDS011;38422;53.172;6.974;2023-02-04T14:30:20;2.80;;;1.50;;
52512;SDS011;38422;53.172;6.974;2023-02-04T14:32:48;3.67;;;1.30;;
52512;SDS011;38422;53.172;6.974;2023-02-04T14:35:14;2.92;;;1.50;;
52512;SDS011;38422;53.172;6.974;2023-02-04T14:37:41;2.78;;;1.27;;
52512;SDS011;38422;53.172;6.974;2023-02-04T14:40:08;2.20;;;1.05;;
52512;SDS011;38422;53.172;6.974;2023-02-04T14:42:36;2.63;;;1.30;;
52512;SDS011;38422;53.172;6.974;2023-02-04T14:45:06;4.10;;;1.30;;
52512;SDS011;38422;53.172;6.974;2023-02-04T14:47:36;2.15;;;1.25;;
52512;SDS011;38422;53.172;6.974;2023-02-04T14:50:03;3.78;;;1.35;;
52512;SDS011;38422;53.172;6.974;2023-02-04T14:52:30;4.40;;;2.30;;
52512;SDS011;38422;53.172;6.974;2023-02-04T14:54:56;2.88;;;1.50;;
52512;SDS011;38422;53.172;6.974;2023-02-04T14:57:21;3.35;;;1.30;;
52512;SDS011;38422;53.172;6.974;2023-02-04T14:59:47;2.42;;;1.27;;
52512;SDS011;38422;53.172;6.974;2023-02-04T15:02:13;3.00;;;1.50;;
52512;SDS011;38422;53.172;6.974;2023-02-04T15:04:42;3.58;;;1.27;;
52512;SDS011;38422;53.172;6.974;2023-02-04T15:07:08;2.67;;;1.30;;